Time;durP1;ratioP1;P1;durP2;ratioP2;P2;SDS_P1;SDS_P2;PMS_P1;PMS_P2;Temp;Humidity;BMP_temperature;BMP_pressure;BME280_temperature;BME280_humidity;BME280_pressure;Samples;Min_cycle;Max_cycle;Signal;HPM_P1;HPM_P2
2023/01/12 00:01:11;;;;;;;;;58.00;44.00;;;;;9.79;48.27;98798.44;6319598;27;97229;-64
2023/01/12 00:04:15;;;;;;;;;52.00;41.80;;;;;9.82;47.81;98806.09;6321253;27;96537;-64
2023/01/12 00:07:20;;;;;;;;;51.80;41.00;;;;;9.80;47.60;98810.88;6317909;27;96300;-64
2023/01/12 00:10:24;;;;;;;;;49.40;40.40;;;;;9.90;47.23;98805.81;6307319;27;96757;-64
2023/01/12 00:13:28;;;;;;;;;46.60;37.60;;;;;9.97;46.99;98806.56;6319340;27;96317;-64
2023/01/12 00:16:34;;;;;;;;;44.60;36.00;;;;;10.07;46.89;98816.88;6307763;27;96880;-64
2023/01/12 00:19:38;;;;;;;;;41.00;34.40;;;;;10.14;46.56;98818.47;6314474;27;96993;-64
2023/01/12 00:22:43;;;;;;;;;35.00;32.00;;;;;10.21;46.49;98818.44;6319783;27;96418;-65
2023/01/12 00:25:50;;;;;;;;;34.75;30.00;;;;;10.26;46.04;98822.09;6310549;27;96615;-65
2023/01/12 00:28:54;;;;;;;;;28.25;27.25;;;;;10.40;45.88;98820.97;6307811;27;96372;-65
2023/01/12 00:31:59;;;;;;;;;30.00;27.00;;;;;10.43;45.79;98823.19;6319638;27;96284;-64
2023/01/12 00:35:03;;;;;;;;;31.40;28.60;;;;;10.52;45.49;98825.59;6322326;27;96264;-64
2023/01/12 00:38:07;;;;;;;;;30.60;27.00;;;;;10.56;45.39;98832.19;6301623;27;97077;-65
2023/01/12 00:45:20;;;;;;;;;29.60;25.00;;;;;10.67;44.95;98842.25;6304903;27;96701;-64
2023/01/12 00:47:56;;;;;;;;;30.50;29.50;;;;;10.81;44.31;98841.03;6319898;27;96482;-64
2023/01/12 00:51:03;;;;;;;;;27.40;24.40;;;;;10.78;44.30;98833.41;6315934;27;96544;-64
2023/01/12 00:54:07;;;;;;;;;30.60;27.80;;;;;10.82;44.30;98835.44;6308715;27;96390;-65
2023/01/12 00:57:13;;;;;;;;;29.00;27.50;;;;;10.97;44.48;98848.56;6308020;27;96336;-65
2023/01/12 01:00:17;;;;;;;;;29.60;28.60;;;;;11.01;44.81;98851.63;6308223;27;96361;-65
2023/01/12 01:03:20;;;;;;;;;33.00;30.00;;;;;11.02;44.92;98858.66;6308769;27;96317;-65
2023/01/12 01:06:24;;;;;;;;;38.40;33.00;;;;;11.03;45.05;98858.44;6321176;27;96324;-66
2023/01/12 01:09:29;;;;;;;;;42.00;35.00;;;;;11.00;44.89;98855.34;6321038;27;96613;-64
2023/01/12 01:12:33;;;;;;;;;44.00;35.00;;;;;10.94;45.36;98857.09;6322819;27;96272;-64
2023/01/12 01:15:36;;;;;;;;;42.40;34.00;;;;;10.86;45.22;98860.91;6321967;27;96930;-64
2023/01/12 01:18:40;;;;;;;;;42.75;35.75;;;;;10.83;45.43;98860.53;6320215;27;96229;-64
2023/01/12 01:21:44;;;;;;;;;43.20;35.40;;;;;10.80;45.55;98861.78;6321826;27;96470;-64
2023/01/12 01:24:49;;;;;;;;;49.00;40.00;;;;;10.83;45.74;98860.53;6321196;27;96837;-66
2023/01/12 01:27:52;;;;;;;;;49.20;40.00;;;;;10.81;45.74;98859.94;6322374;27;96363;-65
2023/01/12 01:31:02;;;;;;;;;47.80;39.40;;;;;10.81;45.70;98865.31;6322024;27;96249;-64
2023/01/12 01:34:06;;;;;;;;;51.20;41.20;;;;;10.78;45.98;98847.72;6312091;27;98529;-66
2023/01/12 01:37:10;;;;;;;;;49.50;39.50;;;;;10.74;46.25;98854.63;6311109;27;97148;-65
2023/01/12 01:40:15;;;;;;;;;51.00;41.00;;;;;10.54;46.72;98839.69;6311566;27;97380;-66
2023/01/12 01:43:21;;;;;;;;;54.80;44.00;;;;;10.55;46.97;98839.47;6296796;27;96667;-66
2023/01/12 01:46:36;;;;;;;;;56.33;44.00;;;;;10.57;47.16;98850.00;6321794;27;96748;-65
2023/01/12 01:49:43;;;;;;;;;55.00;44.00;;;;;10.50;47.50;98852.78;6319554;27;96402;-64
2023/01/12 01:52:52;;;;;;;;;58.50;46.00;;;;;10.41;47.88;98854.91;6313896;27;97032;-64
2023/01/12 01:56:00;;;;;;;;;55.75;44.75;;;;;10.38;48.19;98843.78;6316072;27;96973;-64
2023/01/12 01:59:10;;;;;;;;;59.80;46.60;;;;;10.32;48.66;98840.09;6322685;27;96434;-65
2023/01/12 02:02:14;;;;;;;;;57.40;45.80;;;;;10.30;48.95;98835.97;6316526;27;96344;-64
2023/01/12 02:05:20;;;;;;;;;60.00;47.00;;;;;10.28;49.20;98836.19;6312790;27;96290;-63
2023/01/12 02:08:30;;;;;;;;;58.20;46.00;;;;;10.20;49.81;98838.34;6316092;27;96340;-63
2023/01/12 02:18:24;;;;;;;;;58.00;46.00;;;;;10.31;49.88;98849.22;6319488;27;96839;-65
2023/01/12 02:22:04;;;;;;;;;58.80;47.00;;;;;10.34;50.05;98847.97;6317643;27;97112;-64
2023/01/12 02:25:34;;;;;;;;;60.00;47.00;;;;;10.34;49.93;98843.41;6309289;27;96349;-63
2023/01/12 02:29:12;;;;;;;;;59.20;46.80;;;;;10.42;49.92;98851.19;6304370;27;96624;-63
2023/01/12 02:32:25;;;;;;;;;61.40;48.40;;;;;10.46;49.92;98858.84;6317528;27;96358;-63
2023/01/12 02:35:34;;;;;;;;;58.00;46.00;;;;;10.50;49.83;98860.06;6310168;27;96970;-64
2023/01/12 02:38:46;;;;;;;;;59.80;46.00;;;;;10.45;49.92;98857.19;6309364;27;96372;-64
2023/01/12 02:45:27;;;;;;;;;58.33;47.33;;;;;10.55;49.79;98877.22;6274251;27;96633;-64
2023/01/12 02:48:37;;;;;;;;;59.60;47.80;;;;;10.50;49.91;98860.88;6307287;27;96382;-64
2023/01/12 02:51:45;;;;;;;;;60.80;47.80;;;;;10.60;49.92;98868.47;6309866;27;96485;-64
2023/01/12 02:54:50;;;;;;;;;58.00;46.00;;;;;10.62;49.85;98869.88;6319953;27;96345;-63
2023/01/12 02:57:56;;;;;;;;;61.00;47.00;;;;;10.65;50.05;98866.72;6325467;27;97041;-64
2023/01/12 03:01:03;;;;;;;;;61.00;47.00;;;;;10.68;50.07;98873.56;6322278;27;96228;-63
2023/01/12 03:04:12;;;;;;;;;60.80;48.00;;;;;10.66;50.32;98881.03;6324599;27;96479;-63
2023/01/12 03:07:36;;;;;;;;;61.00;47.00;;;;;10.67;50.09;98875.41;6323973;27;96431;-63
2023/01/12 03:11:05;;;;;;;;;61.60;47.40;;;;;10.68;49.93;98870.84;6306624;27;97015;-64
2023/01/12 03:14:11;;;;;;;;;63.33;50.00;;;;;10.68;50.00;98871.69;6322176;27;96372;-63
2023/01/12 03:17:22;;;;;;;;;61.00;47.60;;;;;10.69;49.90;98867.13;6315849;27;96737;-64
2023/01/12 03:20:31;;;;;;;;;64.40;49.00;;;;;10.71;50.07;98868.53;6318921;27;96258;-64
2023/01/12 03:23:41;;;;;;;;;61.50;48.00;;;;;10.73;50.01;98868.31;6321669;27;96588;-65
2023/01/12 03:26:48;;;;;;;;;61.40;48.20;;;;;10.64;50.06;98864.25;6325192;27;96241;-65
2023/01/12 03:29:58;;;;;;;;;62.00;48.00;;;;;10.65;50.20;98874.81;6310918;27;96672;-64
2023/01/12 03:33:02;;;;;;;;;58.80;48.00;;;;;10.66;50.23;98872.94;6315597;27;96854;-63
2023/01/12 03:36:15;;;;;;;;;59.40;46.00;;;;;10.66;50.67;98873.75;6319477;27;96253;-63
2023/01/12 03:39:27;;;;;;;;;59.40;46.00;;;;;10.65;50.81;98868.63;6317053;27;96963;-63
2023/01/12 03:42:38;;;;;;;;;58.00;45.00;;;;;10.69;51.15;98880.59;6307607;27;96505;-63
2023/01/12 03:45:45;;;;;;;;;56.00;44.20;;;;;10.73;51.22;98879.94;6322369;27;96715;-64
2023/01/12 03:48:55;;;;;;;;;55.00;43.00;;;;;10.75;51.41;98877.03;6298738;27;96304;-66
2023/01/12 03:52:03;;;;;;;;;54.50;44.00;;;;;10.76;51.65;98876.78;6320152;27;96281;-64
2023/01/12 03:55:10;;;;;;;;;51.00;41.00;;;;;10.82;51.62;98883.16;6323245;27;96724;-63
2023/01/12 03:58:15;;;;;;;;;48.80;40.00;;;;;10.87;51.49;98877.91;6316862;27;98947;-65
2023/01/12 04:01:19;;;;;;;;;52.25;41.00;;;;;10.91;51.29;98887.19;6312058;27;96291;-64
2023/01/12 04:04:22;;;;;;;;;49.40;39.80;;;;;10.93;51.46;98887.00;6317290;27;97081;-66
2023/01/12 04:07:27;;;;;;;;;49.80;39.40;;;;;10.95;51.33;98888.41;6313956;27;96294;-63
2023/01/12 04:10:30;;;;;;;;;50.00;40.25;;;;;10.99;51.33;98900.41;6297261;27;97395;-63
2023/01/12 04:13:34;;;;;;;;;49.00;39.75;;;;;10.96;51.44;98898.16;6310206;27;96623;-65
2023/01/12 04:16:37;;;;;;;;;51.80;41.80;;;;;10.97;51.02;98893.59;6321040;27;96633;-64
2023/01/12 04:19:41;;;;;;;;;52.50;42.00;;;;;10.97;51.09;98898.97;6322606;27;96281;-64
2023/01/12 04:22:47;;;;;;;;;49.75;40.75;;;;;11.00;51.09;98893.13;6310162;27;96389;-66
2023/01/12 04:25:50;;;;;;;;;52.20;41.40;;;;;10.99;51.06;98902.28;6302726;27;96794;-64
2023/01/12 04:28:53;;;;;;;;;49.60;42.00;;;;;11.02;51.13;98901.81;6307246;27;96513;-65
2023/01/12 04:31:57;;;;;;;;;53.20;44.00;;;;;11.01;51.19;98900.16;6307081;27;96268;-64
2023/01/12 04:35:00;;;;;;;;;49.00;40.75;;;;;10.98;51.16;98890.66;6322983;27;96317;-64
2023/01/12 04:38:07;;;;;;;;;53.00;42.00;;;;;11.01;51.51;98898.31;6322850;27;96369;-65
2023/01/12 04:41:11;;;;;;;;;49.00;40.00;;;;;10.85;51.63;98875.44;6311954;27;96415;-67
2023/01/12 04:44:14;;;;;;;;;50.00;40.75;;;;;11.05;51.53;98890.56;6319424;27;96301;-64
2023/01/12 04:47:17;;;;;;;;;47.40;39.00;;;;;11.10;51.39;98890.72;6306501;27;96954;-63
2023/01/12 04:50:21;;;;;;;;;47.00;39.00;;;;;11.08;51.49;98882.88;6315260;27;96493;-65
2023/01/12 04:53:26;;;;;;;;;49.60;40.00;;;;;11.05;51.41;98882.47;6314728;27;96279;-64
2023/01/12 04:56:31;;;;;;;;;49.75;41.75;;;;;11.14;51.32;98889.25;6305171;27;96301;-65
2023/01/12 04:59:34;;;;;;;;;50.00;41.00;;;;;11.16;51.41;98890.66;6315384;27;96384;-64
2023/01/12 05:02:38;;;;;;;;;50.25;40.00;;;;;11.18;51.14;98893.16;6305930;27;96304;-65
2023/01/12 05:05:41;;;;;;;;;51.80;42.40;;;;;11.19;51.15;98886.72;6317409;27;96686;-64
2023/01/12 05:12:07;;;;;;;;;49.60;39.60;;;;;11.16;51.35;98887.97;6309622;27;96566;-65
2023/01/12 05:15:11;;;;;;;;;51.00;41.00;;;;;11.10;51.40;98894.25;6306809;27;96456;-63
2023/01/12 05:18:14;;;;;;;;;50.00;40.00;;;;;11.02;51.53;98883.78;6317888;27;96485;-63
2023/01/12 05:21:17;;;;;;;;;51.60;41.00;;;;;11.01;51.85;98886.69;6317094;27;96983;-64
2023/01/12 05:24:22;;;;;;;;;49.00;39.00;;;;;11.00;51.91;98895.81;6309769;27;96902;-64
2023/01/12 05:27:26;;;;;;;;;45.25;37.00;;;;;10.99;52.10;98894.19;6309078;27;96895;-64
2023/01/12 05:30:29;;;;;;;;;47.00;37.50;;;;;10.98;52.25;98901.47;6308240;27;97917;-64
2023/01/12 05:33:34;;;;;;;;;41.50;35.00;;;;;10.99;52.62;98894.19;6315339;27;96981;-64
2023/01/12 05:36:37;;;;;;;;;39.50;33.00;;;;;10.98;52.52;98901.47;6316305;27;96216;-64
2023/01/12 05:39:42;;;;;;;;;44.00;35.00;;;;;11.03;52.59;98890.00;6307675;27;97522;-63
2023/01/12 05:46:06;;;;;;;;;44.00;36.00;;;;;10.88;52.98;98894.94;6294784;27;96752;-67
2023/01/12 05:49:10;;;;;;;;;43.20;36.60;;;;;10.83;52.94;98893.72;6309925;27;96666;-63
2023/01/12 05:52:13;;;;;;;;;45.50;36.00;;;;;10.83;53.14;98896.44;6301767;27;97778;-64
2023/01/12 05:55:18;;;;;;;;;36.50;32.00;;;;;10.76;53.10;98878.66;6309276;27;96934;-66
2023/01/12 05:58:22;;;;;;;;;41.50;32.00;;;;;10.82;53.24;98896.63;6316358;27;96568;-64
2023/01/12 06:01:26;;;;;;;;;34.50;31.75;;;;;10.94;52.89;98911.06;6305026;27;97140;-65
2023/01/12 06:04:29;;;;;;;;;38.25;32.50;;;;;10.95;52.97;98915.38;6318454;27;96297;-65
2023/01/12 06:07:33;;;;;;;;;40.00;34.00;;;;;10.96;53.17;98917.03;6305918;27;98429;-65
2023/01/12 06:10:41;;;;;;;;;45.00;35.00;;;;;10.92;53.04;98920.41;6312247;27;96279;-66
2023/01/12 06:13:58;;;;;;;;;47.40;39.00;;;;;10.87;53.32;98915.69;6310908;27;97211;-66
2023/01/12 06:17:01;;;;;;;;;45.40;36.60;;;;;10.76;53.65;98905.59;6305967;27;97410;-65
2023/01/12 06:20:06;;;;;;;;;45.00;38.00;;;;;10.78;53.65;98917.00;6312746;27;96240;-64
2023/01/12 06:23:09;;;;;;;;;45.00;35.80;;;;;10.75;53.71;98920.97;6313838;27;97539;-64
2023/01/12 06:26:14;;;;;;;;;42.00;36.00;;;;;10.75;54.00;98923.66;6318405;27;96477;-65
2023/01/12 06:29:17;;;;;;;;;43.20;35.20;;;;;10.70;54.16;98931.59;6309919;27;96649;-64
2023/01/12 06:32:21;;;;;;;;;41.00;34.60;;;;;10.69;54.25;98942.63;6318122;27;98715;-68
2023/01/12 06:35:25;;;;;;;;;40.40;34.40;;;;;10.69;54.43;98937.22;6334610;27;97026;-67
2023/01/12 06:38:30;;;;;;;;;47.00;38.00;;;;;10.67;54.54;98939.31;6322413;27;97023;-64
2023/01/12 06:44:56;;;;;;;;;38.75;33.75;;;;;10.77;54.46;98936.94;6322290;27;96473;-66
2023/01/12 06:47:59;;;;;;;;;36.33;32.00;;;;;10.79;54.47;98940.25;6320573;27;97449;-64
2023/01/12 06:51:03;;;;;;;;;38.40;33.40;;;;;10.83;54.38;98947.66;6322015;27;96536;-65
2023/01/12 06:54:07;;;;;;;;;33.00;30.00;;;;;10.89;54.43;98959.44;6320886;27;96323;-65
2023/01/12 06:57:12;;;;;;;;;38.50;32.50;;;;;10.99;54.25;98959.75;6316141;27;97086;-63
2023/01/12 07:00:16;;;;;;;;;35.40;32.00;;;;;10.96;54.10;98962.88;6320953;27;96357;-64
2023/01/12 07:03:20;;;;;;;;;38.80;32.80;;;;;11.11;53.77;98971.47;6323576;27;96321;-64
2023/01/12 07:06:24;;;;;;;;;37.60;32.00;;;;;11.17;53.95;98967.03;6326920;27;96149;-65
2023/01/12 07:09:28;;;;;;;;;37.00;32.00;;;;;11.21;53.71;98971.78;6316867;27;96260;-63
2023/01/12 07:12:32;;;;;;;;;34.60;30.40;;;;;11.26;53.47;98968.41;6307728;27;96394;-64
2023/01/12 07:15:36;;;;;;;;;32.50;30.00;;;;;11.23;53.16;98969.69;6318447;27;96533;-65
2023/01/12 07:18:43;;;;;;;;;32.50;29.50;;;;;11.34;53.24;98972.69;6313722;27;96354;-66
2023/01/12 07:21:48;;;;;;;;;27.60;26.60;;;;;11.37;52.91;98978.47;6325784;27;96210;-66
2023/01/12 07:24:51;;;;;;;;;25.50;23.75;;;;;11.47;52.81;98983.34;6326924;27;96436;-65
2023/01/12 07:27:57;;;;;;;;;23.00;21.25;;;;;11.51;52.58;98979.13;6325761;27;96573;-65
2023/01/12 07:31:01;;;;;;;;;22.00;18.50;;;;;11.54;52.39;98982.19;6323631;27;96509;-65
2023/01/12 07:34:05;;;;;;;;;19.50;17.50;;;;;11.60;52.27;98988.56;6319759;27;96261;-65
2023/01/12 07:37:08;;;;;;;;;16.40;16.00;;;;;11.68;52.25;98988.25;6320179;27;96249;-65
2023/01/12 07:40:14;;;;;;;;;16.00;13.40;;;;;11.76;51.94;98985.31;6322872;27;96251;-63
2023/01/12 07:43:19;;;;;;;;;16.00;15.25;;;;;11.89;51.84;98979.72;6323105;27;96376;-64
2023/01/12 07:46:23;;;;;;;;;14.00;14.00;;;;;11.99;51.36;98980.00;6320529;27;96209;-66
2023/01/12 07:49:26;;;;;;;;;14.80;13.80;;;;;12.21;51.11;98972.22;6319095;27;96508;-65
2023/01/12 07:52:29;;;;;;;;;12.00;12.00;;;;;12.47;50.40;98969.09;6317462;27;96294;-64
2023/01/12 07:55:33;;;;;;;;;13.00;12.00;;;;;12.74;49.85;98980.34;6322509;27;96595;-65
2023/01/12 07:58:37;;;;;;;;;13.00;11.00;;;;;12.93;49.21;98978.34;6323685;27;96287;-65
2023/01/12 08:01:41;;;;;;;;;19.60;18.00;;;;;13.02;49.19;98980.47;6324239;27;96230;-65
2023/01/12 08:04:44;;;;;;;;;26.60;25.40;;;;;12.77;49.08;98933.88;6312414;27;97141;-65
2023/01/12 08:07:48;;;;;;;;;22.40;21.40;;;;;13.10;48.99;98992.00;6325363;27;96336;-66
2023/01/12 08:10:52;;;;;;;;;27.20;23.60;;;;;13.07;48.99;98996.00;6315716;27;96506;-65
2023/01/12 08:13:57;;;;;;;;;30.60;26.80;;;;;13.09;48.96;98996.59;6311875;27;96125;-66
2023/01/12 08:17:02;;;;;;;;;32.00;29.60;;;;;12.99;49.21;98989.06;6304492;27;97368;-66
2023/01/12 08:20:10;;;;;;;;;30.20;28.00;;;;;13.10;49.18;99000.13;6309275;27;96921;-64
2023/01/12 08:23:19;;;;;;;;;31.40;29.00;;;;;13.15;48.89;99005.69;6301209;27;96407;-65
2023/01/12 08:26:27;;;;;;;;;31.50;28.00;;;;;13.11;48.93;98994.50;6304338;27;96476;-64
2023/01/12 08:29:38;;;;;;;;;36.00;30.00;;;;;13.11;48.94;98997.22;6307019;27;96681;-65
2023/01/12 08:32:42;;;;;;;;;25.60;24.00;;;;;13.10;49.09;99002.81;6310512;27;96470;-63
2023/01/12 08:35:46;;;;;;;;;27.80;25.20;;;;;13.06;49.11;99007.06;6313331;27;96967;-64
2023/01/12 08:38:50;;;;;;;;;32.50;28.00;;;;;13.00;48.88;99011.53;6310115;27;96238;-64
2023/01/12 08:41:54;;;;;;;;;31.00;29.25;;;;;12.93;49.26;99011.66;6320732;27;96426;-63
2023/01/12 08:44:58;;;;;;;;;33.00;30.00;;;;;12.89;49.26;99002.38;6322332;27;96293;-63
2023/01/12 08:48:02;;;;;;;;;33.20;28.80;;;;;12.82;49.50;99006.22;6308837;27;96473;-64
2023/01/12 08:51:06;;;;;;;;;30.00;28.00;;;;;12.80;49.59;99001.06;6312993;27;96611;-64
2023/01/12 08:54:11;;;;;;;;;33.60;29.60;;;;;12.84;49.70;99004.13;6310715;27;96309;-66
2023/01/12 08:57:16;;;;;;;;;26.60;25.20;;;;;12.91;49.79;99011.06;6310786;27;96486;-66
2023/01/12 09:00:22;;;;;;;;;26.20;25.00;;;;;12.99;49.71;99008.03;6307432;27;97099;-63
2023/01/12 09:03:25;;;;;;;;;24.60;23.00;;;;;12.99;49.52;98991.78;6312679;27;96438;-64
2023/01/12 09:06:31;;;;;;;;;17.00;16.00;;;;;13.10;49.42;98992.00;6312576;27;96920;-66
2023/01/12 09:09:35;;;;;;;;;18.00;17.00;;;;;13.29;49.17;98999.00;6312672;27;96911;-65
2023/01/12 09:12:38;;;;;;;;;16.80;14.20;;;;;13.44;48.81;98992.00;6307295;27;96295;-64
2023/01/12 09:15:43;;;;;;;;;20.60;18.00;;;;;13.69;48.31;98996.31;6304688;27;96687;-64
2023/01/12 09:19:07;;;;;;;;;18.20;16.40;;;;;14.10;47.70;99003.41;6306872;27;96301;-65
2023/01/12 09:22:11;;;;;;;;;16.00;15.00;;;;;14.56;46.56;98996.97;6307935;27;96317;-66
2023/01/12 09:25:15;;;;;;;;;17.00;17.00;;;;;15.36;45.20;99002.88;6311648;27;96235;-65
2023/01/12 09:28:18;;;;;;;;;14.60;13.60;;;;;16.51;42.67;98993.72;6309863;27;96484;-64
2023/01/12 09:31:23;;;;;;;;;14.50;13.00;;;;;18.06;39.52;98989.59;6311390;27;96367;-64
2023/01/12 09:34:26;;;;;;;;;12.00;12.00;;;;;19.74;36.07;98977.63;6323062;27;96467;-65
2023/01/12 09:37:30;;;;;;;;;11.00;10.00;;;;;21.29;33.08;98972.56;6314254;27;96358;-66
2023/01/12 09:40:34;;;;;;;;;9.00;8.00;;;;;22.72;31.13;98967.75;6320048;27;96249;-65
2023/01/12 09:47:03;;;;;;;;;9.00;7.67;;;;;26.44;25.95;98963.31;6311054;27;96298;-63
2023/01/12 09:50:11;;;;;;;;;10.00;8.00;;;;;28.09;23.68;98952.34;6313497;27;96839;-65
2023/01/12 09:53:20;;;;;;;;;8.00;7.00;;;;;29.43;21.91;98945.53;6325169;27;96253;-65
2023/01/12 09:56:31;;;;;;;;;7.75;7.00;;;;;30.46;20.96;98937.78;6318690;27;97907;-65
2023/01/12 09:59:45;;;;;;;;;7.00;6.60;;;;;31.56;20.35;98940.88;6315822;27;96615;-66
2023/01/12 10:02:54;;;;;;;;;5.60;4.60;;;;;32.33;18.96;98925.28;6317375;27;96322;-67
2023/01/12 10:06:00;;;;;;;;;5.60;4.00;;;;;33.14;18.09;98936.53;6322302;27;96887;-66
2023/01/12 10:09:06;;;;;;;;;4.00;4.00;;;;;33.52;17.40;98939.28;6316740;27;96627;-65
2023/01/12 10:12:19;;;;;;;;;4.40;3.80;;;;;33.57;16.72;98921.38;6315351;27;96835;-67
2023/01/12 10:15:42;;;;;;;;;5.25;4.00;;;;;33.34;16.27;98924.16;6313628;27;97200;-66
2023/01/12 10:18:51;;;;;;;;;3.80;3.80;;;;;33.23;16.69;98907.22;6317278;27;96503;-66
2023/01/12 10:21:57;;;;;;;;;5.00;5.00;;;;;33.15;16.71;98913.81;6319196;27;96161;-65
2023/01/12 10:25:00;;;;;;;;;4.60;4.00;;;;;33.28;16.67;98918.06;6320866;27;96238;-65
2023/01/12 10:28:11;;;;;;;;;4.00;4.00;;;;;33.56;16.33;98919.78;6318067;27;96779;-65
2023/01/12 10:31:19;;;;;;;;;4.00;4.00;;;;;33.17;16.43;98919.06;6315073;27;96729;-64
2023/01/12 10:34:24;;;;;;;;;4.50;4.50;;;;;33.14;15.93;98917.78;6317115;27;98024;-66
2023/01/12 10:37:27;;;;;;;;;3.00;3.00;;;;;32.46;17.13;98914.78;6319418;27;96613;-65
2023/01/12 10:40:33;;;;;;;;;3.00;3.00;;;;;31.01;17.80;98911.94;6315444;27;96804;-66
2023/01/12 10:43:38;;;;;;;;;5.40;5.40;;;;;29.79;18.44;98905.84;6324795;27;96456;-65
2023/01/12 10:46:42;;;;;;;;;3.50;3.00;;;;;29.11;19.67;98899.97;6329129;27;96366;-66
2023/01/12 10:49:47;;;;;;;;;5.00;4.00;;;;;28.47;20.05;98902.34;6330567;27;96257;-65
2023/01/12 10:52:55;;;;;;;;;4.00;4.00;;;;;28.40;20.13;98904.84;6320508;27;96723;-65
2023/01/12 10:56:01;;;;;;;;;5.00;3.80;;;;;28.57;19.36;98903.91;6316850;27;96570;-65
2023/01/12 10:59:16;;;;;;;;;4.00;4.00;;;;;29.27;19.39;98900.13;6326270;27;96236;-65
2023/01/12 11:02:19;;;;;;;;;3.60;3.20;;;;;29.88;18.71;98886.25;6326376;27;96348;-66
2023/01/12 11:05:30;;;;;;;;;4.00;3.00;;;;;30.45;17.66;98878.50;6318760;27;96251;-64
2023/01/12 11:08:33;;;;;;;;;5.00;4.60;;;;;31.12;17.45;98882.44;6314036;27;96373;-64
2023/01/12 11:11:37;;;;;;;;;3.00;3.00;;;;;30.92;16.55;98884.25;6328547;27;96288;-65
2023/01/12 11:14:40;;;;;;;;;3.00;3.00;;;;;31.18;16.50;98878.19;6328849;27;96872;-65
2023/01/12 11:17:57;;;;;;;;;3.00;3.00;;;;;31.58;16.39;98869.69;6329660;27;96323;-65
2023/01/12 11:21:05;;;;;;;;;3.00;3.00;;;;;31.77;15.82;98874.53;6317140;27;96805;-65
2023/01/12 11:24:17;;;;;;;;;3.00;2.80;;;;;31.21;15.84;98860.78;6326694;27;96232;-66
2023/01/12 11:27:27;;;;;;;;;4.50;4.00;;;;;30.53;16.92;98857.31;6328230;27;96271;-65
2023/01/12 11:30:39;;;;;;;;;3.00;3.00;;;;;30.03;17.99;98839.13;6310984;27;97024;-65
2023/01/12 11:33:46;;;;;;;;;3.75;3.00;;;;;28.58;18.40;98850.06;6323793;27;96237;-65
2023/01/12 11:36:55;;;;;;;;;3.00;3.00;;;;;27.42;19.81;98825.72;6306614;27;96544;-66
2023/01/12 11:40:06;;;;;;;;;5.00;5.00;;;;;27.03;19.95;98832.41;6323208;27;96105;-64
2023/01/12 11:46:55;;;;;;;;;4.00;4.00;;;;;25.47;21.77;98832.72;6305652;27;97005;-67
2023/01/12 11:50:05;;;;;;;;;3.00;2.80;;;;;24.23;23.04;98845.66;6311914;27;99653;-65
2023/01/12 11:53:20;;;;;;;;;3.20;3.20;;;;;23.20;24.39;98831.63;6310540;27;97585;-65
2023/01/12 11:56:40;;;;;;;;;3.00;3.00;;;;;22.58;25.44;98830.25;6313777;27;96366;-65
2023/01/12 11:59:56;;;;;;;;;3.40;3.00;;;;;22.37;25.91;98835.31;6313846;27;96429;-64
2023/01/12 12:03:18;;;;;;;;;2.75;2.75;;;;;21.96;26.40;98831.53;6310377;27;96502;-65
2023/01/12 12:06:41;;;;;;;;;3.00;3.00;;;;;21.56;26.78;98839.19;6323610;27;96495;-66
2023/01/12 12:10:03;;;;;;;;;3.00;3.00;;;;;21.34;27.36;98833.47;6313220;27;96333;-64
2023/01/12 12:13:28;;;;;;;;;4.00;3.00;;;;;20.92;27.83;98833.34;6327837;27;96077;-64
2023/01/12 12:16:41;;;;;;;;;3.20;3.00;;;;;20.49;28.20;98825.00;6323801;27;96338;-63
2023/01/12 12:19:55;;;;;;;;;3.60;3.60;;;;;20.21;28.96;98818.38;6318740;27;97123;-66
2023/01/12 12:23:12;;;;;;;;;4.00;3.00;;;;;20.00;29.69;98835.22;6322820;27;96878;-63
2023/01/12 12:26:24;;;;;;;;;4.00;4.00;;;;;19.59;29.73;98829.19;6319864;27;96352;-64
2023/01/12 12:29:43;;;;;;;;;1.33;1.33;;;;;18.91;29.01;98824.22;6314099;27;96445;-64
2023/01/12 12:32:55;;;;;;;;;3.00;3.00;;;;;18.81;29.46;98816.06;6318351;27;96420;-65
2023/01/12 12:36:10;;;;;;;;;2.20;2.20;;;;;19.98;28.40;98826.50;6321425;27;96774;-64
2023/01/12 12:39:35;;;;;;;;;3.00;2.60;;;;;21.16;26.71;98817.75;6319128;27;96761;-66
2023/01/12 12:46:34;;;;;;;;;3.00;3.00;;;;;23.51;24.36;98817.25;6327882;27;96275;-64
2023/01/12 12:49:39;;;;;;;;;3.20;3.20;;;;;24.08;23.43;98822.00;6315576;27;97474;-64
2023/01/12 12:52:43;;;;;;;;;3.00;2.20;;;;;23.97;23.24;98817.03;6319389;27;96296;-65
2023/01/12 12:55:50;;;;;;;;;3.00;3.00;;;;;23.68;22.96;98820.19;6320404;27;97189;-65
2023/01/12 12:58:55;;;;;;;;;2.00;1.20;;;;;22.83;23.79;98816.09;6322577;27;99080;-65
2023/01/12 13:02:01;;;;;;;;;3.25;3.25;;;;;22.52;24.47;98800.44;6316093;27;96660;-65
2023/01/12 13:05:07;;;;;;;;;2.75;2.75;;;;;22.17;24.63;98780.69;6314558;27;96801;-65
2023/01/12 13:08:20;;;;;;;;;4.00;3.60;;;;;22.00;25.33;98808.69;6311226;27;98986;-65
2023/01/12 13:11:52;;;;;;;;;4.00;4.00;;;;;21.92;25.38;98817.56;6316196;27;96342;-64
2023/01/12 13:15:20;;;;;;;;;4.00;4.00;;;;;21.78;25.66;98816.69;6311582;27;98614;-64
2023/01/12 13:19:02;;;;;;;;;5.00;4.00;;;;;21.49;25.46;98816.00;6319211;27;96590;-64
2023/01/12 13:22:43;;;;;;;;;4.00;3.20;;;;;20.62;26.66;98816.09;6319774;27;96289;-64
2023/01/12 13:25:57;;;;;;;;;4.00;4.00;;;;;20.61;27.06;98808.22;6277146;27;96674;-65
2023/01/12 13:29:37;;;;;;;;;4.00;3.50;;;;;20.27;27.14;98795.34;6312966;27;96306;-64
2023/01/12 13:32:49;;;;;;;;;2.40;2.40;;;;;19.99;27.62;98811.72;6314618;27;96468;-65
2023/01/12 13:36:05;;;;;;;;;3.20;3.00;;;;;20.01;27.40;98812.25;6314425;27;96361;-64
2023/01/12 13:39:15;;;;;;;;;4.00;3.00;;;;;19.57;27.74;98813.06;6308974;27;96813;-64
2023/01/12 13:45:49;;;;;;;;;3.00;3.00;;;;;18.97;28.85;98806.72;6284988;27;96607;-65
2023/01/12 13:48:55;;;;;;;;;3.00;3.00;;;;;18.95;28.68;98805.38;6314157;27;96851;-65
2023/01/12 13:52:02;;;;;;;;;2.00;2.00;;;;;18.89;28.75;98807.31;6309297;27;98526;-67
2023/01/12 13:55:19;;;;;;;;;3.60;3.60;;;;;18.77;28.93;98806.78;6320009;27;96451;-65
2023/01/12 13:58:23;;;;;;;;;5.00;4.00;;;;;18.59;29.34;98802.72;6314912;27;96301;-65
2023/01/12 14:01:29;;;;;;;;;4.00;4.00;;;;;18.44;29.66;98801.88;6318158;27;96309;-65
2023/01/12 14:04:57;;;;;;;;;4.00;3.00;;;;;18.25;29.92;98796.19;6314160;27;98180;-64
2023/01/12 14:08:19;;;;;;;;;4.00;4.00;;;;;18.06;30.20;98785.00;6319426;27;96416;-64
2023/01/12 14:11:45;;;;;;;;;6.00;5.60;;;;;17.74;30.83;98777.03;6319948;27;96875;-64
2023/01/12 14:18:40;;;;;;;;;3.25;3.25;;;;;17.22;31.65;98782.63;6318038;27;96492;-65
2023/01/12 14:21:55;;;;;;;;;5.00;5.00;;;;;17.10;31.92;98782.03;6312579;27;96295;-63
2023/01/12 14:25:14;;;;;;;;;4.40;3.40;;;;;16.80;32.40;98781.91;6319712;27;96479;-64
2023/01/12 14:28:20;;;;;;;;;5.00;4.00;;;;;16.67;32.37;98774.19;6317379;27;97754;-64
2023/01/12 14:31:30;;;;;;;;;4.40;4.00;;;;;16.52;32.70;98774.88;6318520;27;96287;-66
2023/01/12 14:34:37;;;;;;;;;3.00;3.00;;;;;16.26;33.07;98760.31;6315733;27;96940;-64
2023/01/12 14:37:41;;;;;;;;;4.00;4.00;;;;;16.02;33.44;98767.19;6313145;27;96240;-65
2023/01/12 14:40:49;;;;;;;;;4.00;4.00;;;;;15.76;33.67;98760.72;6317880;27;96335;-64
2023/01/12 14:47:24;;;;;;;;;4.00;4.00;;;;;15.15;34.79;98757.34;6312829;27;96882;-65
2023/01/12 14:50:27;;;;;;;;;3.00;3.00;;;;;14.89;35.03;98746.44;6319592;27;96647;-64
2023/01/12 14:53:38;;;;;;;;;4.00;4.00;;;;;14.49;35.53;98741.31;6309130;27;96300;-64
2023/01/12 14:56:43;;;;;;;;;5.40;5.40;;;;;14.42;35.73;98756.94;6323721;27;96254;-64
2023/01/12 14:59:48;;;;;;;;;6.00;5.00;;;;;14.21;36.34;98758.50;6320482;27;96503;-63
2023/01/12 15:02:54;;;;;;;;;3.60;3.60;;;;;14.09;36.14;98755.88;6325564;27;96710;-63
2023/01/12 15:05:58;;;;;;;;;4.50;4.50;;;;;13.92;36.90;98759.66;6325248;27;96553;-65
2023/01/12 15:09:03;;;;;;;;;5.00;4.25;;;;;13.79;37.24;98758.09;6326311;27;96624;-63
2023/01/12 15:12:42;;;;;;;;;4.20;4.00;;;;;13.63;37.67;98767.03;6315494;27;96471;-64
2023/01/12 15:25:52;;;;;;;;;9.33;9.00;;;;;13.12;39.88;98765.25;6325486;27;97074;-66
2023/01/12 15:28:56;;;;;;;;;9.00;8.00;;;;;13.02;39.78;98771.25;6323669;27;96930;-64